EINN

Shannon Airport

Code ICAO EINN
Code IATA SNN
Nom Shannon Airport
Emplacement Shannon, Munster, IE
Élévation 46 pieds / 14 mètres
Latitude 52.70199966
Longitude -8.92481995
METAR EINN 171130Z 16013KT 9999 FEW030 BKN046 BKN100 15/08 Q1008 NOSIG
Informations extras Afficher NOTAMS
Afficher cartes
Piste Longueur Largeur Surface Élévation
05 463 ft 198 ft PEM ft
06 10495 ft 148 ft ASP 46 ft
09 805 ft 148 ft PEM 16 ft
13 543 ft 148 ft ASP 11 ft
18 23 ft 148 ft PEM 8 ft
23 463 ft 198 ft PEM ft
24 10495 ft 148 ft ASP 15 ft
27 805 ft 148 ft PEM 8 ft
31 543 ft 148 ft ASP 2 ft
36 23 ft 148 ft PEM 4 ft